createdAt,value
2019-05-02T00:00:59.116Z,13.67
2019-05-02T00:03:28.302Z,13.67
2019-05-02T00:05:56.176Z,13.73
2019-05-02T00:08:24.183Z,13.65
2019-05-02T00:10:52.571Z,13.68
2019-05-02T00:13:20.582Z,13.57
2019-05-02T00:15:49.667Z,13.54
2019-05-02T00:18:18.180Z,13.54
2019-05-02T00:20:46.704Z,13.48
2019-05-02T00:23:14.651Z,13.58
2019-05-02T00:25:42.537Z,13.58
2019-05-02T00:28:12.481Z,13.47
2019-05-02T00:30:40.286Z,13.47
2019-05-02T00:33:10.451Z,13.45
2019-05-02T00:35:40.897Z,13.46
2019-05-02T00:38:08.403Z,13.43
2019-05-02T00:40:36.274Z,13.37
2019-05-02T00:43:04.203Z,13.36
2019-05-02T00:45:32.109Z,13.39
2019-05-02T00:48:05.216Z,13.31
2019-05-02T00:50:36.643Z,13.27
2019-05-02T00:53:07.156Z,13.27
2019-05-02T00:55:35.561Z,13.31
2019-05-02T00:58:03.812Z,13.20
2019-05-02T01:00:37.328Z,13.24
2019-05-02T01:03:05.169Z,13.13
2019-05-02T01:05:33.719Z,13.13
2019-05-02T01:08:03.335Z,13.12
2019-05-02T01:10:31.771Z,13.08
2019-05-02T01:13:00.888Z,13.06
2019-05-02T01:15:28.786Z,13.02
2019-05-02T01:17:56.485Z,13.01
2019-05-02T01:20:27.530Z,13.00
2019-05-02T01:22:53.886Z,12.95
2019-05-02T01:25:21.655Z,12.95
2019-05-02T01:28:18.755Z,12.89
2019-05-02T01:31:13.283Z,12.90
2019-05-02T01:33:48.699Z,12.91
2019-05-02T01:36:22.909Z,12.87
2019-05-02T01:38:50.647Z,12.87
2019-05-02T01:41:18.518Z,12.78
2019-05-02T01:43:46.261Z,12.80
2019-05-02T01:46:17.231Z,12.80
2019-05-02T01:48:45.593Z,12.81
2019-05-02T01:51:14.055Z,12.81
2019-05-02T01:53:41.890Z,12.84
2019-05-02T01:56:09.752Z,12.84
2019-05-02T01:58:42.775Z,12.77
2019-05-02T02:01:10.643Z,12.77
2019-05-02T02:03:40.411Z,12.80
2019-05-02T02:06:10.077Z,12.75
2019-05-02T02:08:38.270Z,12.70
2019-05-02T02:11:06.153Z,12.70
2019-05-02T02:13:36.684Z,12.64
2019-05-02T02:16:05.742Z,12.63
2019-05-02T02:18:37.801Z,12.63
2019-05-02T02:21:25.627Z,12.58
2019-05-02T02:24:02.641Z,12.56
2019-05-02T02:26:30.518Z,12.56
2019-05-02T02:28:58.681Z,12.48
2019-05-02T02:31:26.540Z,12.44
2019-05-02T02:33:55.745Z,12.40
2019-05-02T02:36:31.694Z,12.36
2019-05-02T02:38:53.292Z,12.31
2019-05-02T02:41:21.208Z,12.28
2019-05-02T02:44:23.758Z,12.28
2019-05-02T02:46:52.337Z,12.23
2019-05-02T02:49:24.004Z,12.16
2019-05-02T02:51:49.777Z,12.08
2019-05-02T02:54:17.717Z,12.06
2019-05-02T02:56:45.788Z,12.06
2019-05-02T02:59:19.383Z,12.07
2019-05-02T03:01:43.636Z,12.07
2019-05-02T03:04:12.217Z,12.06
2019-05-02T03:06:45.169Z,12.06
2019-05-02T03:09:10.176Z,12.03
2019-05-02T03:11:48.886Z,12.02
2019-05-02T03:14:22.151Z,11.96
2019-05-02T03:16:50.062Z,11.95
2019-05-02T03:19:21.251Z,11.96
2019-05-02T03:21:54.589Z,11.97
2019-05-02T03:24:24.774Z,11.97
2019-05-02T03:26:55.225Z,11.96
2019-05-02T03:29:22.531Z,11.96
2019-05-02T03:32:11.916Z,11.92
2019-05-02T03:34:23.928Z,11.94
2019-05-02T03:36:51.646Z,11.90
2019-05-02T03:39:19.925Z,11.84
2019-05-02T03:41:47.969Z,11.84
2019-05-02T03:44:24.687Z,11.84
2019-05-02T03:46:46.364Z,11.80
2019-05-02T03:49:14.337Z,11.80
2019-05-02T03:51:42.109Z,11.82
2019-05-02T03:54:10.622Z,11.81
2019-05-02T03:56:44.489Z,11.81
2019-05-02T03:59:08.541Z,11.80
2019-05-02T04:01:41.333Z,11.78
2019-05-02T04:04:06.532Z,11.78
2019-05-02T04:06:34.353Z,11.76
2019-05-02T04:09:02.529Z,11.75
2019-05-02T04:11:38.401Z,11.73
2019-05-02T04:14:00.512Z,11.75
2019-05-02T04:16:29.419Z,11.69
2019-05-02T04:18:58.476Z,11.69
2019-05-02T04:21:26.736Z,11.71
2019-05-02T04:24:07.576Z,11.72
2019-05-02T04:26:25.958Z,11.73
2019-05-02T04:28:53.881Z,11.75
2019-05-02T04:31:24.630Z,11.74
2019-05-02T04:33:54.123Z,11.72
2019-05-02T04:36:21.933Z,11.70
2019-05-02T04:38:52.475Z,11.71
2019-05-02T04:41:28.827Z,11.74
2019-05-02T04:43:55.791Z,11.76
2019-05-02T04:46:27.269Z,11.82
2019-05-02T04:48:52.741Z,11.85
2019-05-02T04:51:20.401Z,11.88
2019-05-02T04:53:49.887Z,11.94
2019-05-02T04:56:18.645Z,12.02
2019-05-02T04:58:49.492Z,12.02
2019-05-02T05:01:16.585Z,12.08
2019-05-02T05:03:49.128Z,12.09
2019-05-02T05:06:14.163Z,12.16
2019-05-02T05:08:52.781Z,12.21
2019-05-02T05:11:24.703Z,12.31
2019-05-02T05:13:52.382Z,12.34
2019-05-02T05:16:19.845Z,12.38
2019-05-02T05:18:49.309Z,12.45
2019-05-02T05:21:17.937Z,12.52
2019-05-02T05:24:08.437Z,12.55
2019-05-02T05:26:41.085Z,12.59
2019-05-02T05:29:08.256Z,12.59
2019-05-02T05:31:38.177Z,12.56
2019-05-02T05:34:07.806Z,12.59
2019-05-02T05:36:37.497Z,12.64
2019-05-02T05:39:08.583Z,12.72
2019-05-02T05:41:37.812Z,12.72
2019-05-02T05:44:07.610Z,12.74
2019-05-02T05:46:40.977Z,12.76
2019-05-02T05:49:04.971Z,12.79
2019-05-02T05:51:32.747Z,12.83
2019-05-02T05:54:03.099Z,12.85
2019-05-02T05:56:32.559Z,12.89
2019-05-02T05:59:00.393Z,12.95
2019-05-02T06:01:34.445Z,12.99
2019-05-02T06:03:58.214Z,13.04
2019-05-02T06:06:27.487Z,13.07
2019-05-02T06:08:55.575Z,13.12
2019-05-02T06:11:23.367Z,13.19
2019-05-02T06:13:51.183Z,13.19
2019-05-02T06:16:18.968Z,13.27
2019-05-02T06:18:47.170Z,13.27
2019-05-02T06:21:17.182Z,13.33
2019-05-02T06:23:45.149Z,13.38
2019-05-02T06:26:14.049Z,13.37
2019-05-02T06:28:43.264Z,13.44
2019-05-02T06:31:11.237Z,13.44
2019-05-02T06:33:39.557Z,13.48
2019-05-02T06:36:07.427Z,13.53
2019-05-02T06:38:35.934Z,13.53
2019-05-02T06:41:03.911Z,13.58
2019-05-02T06:43:31.615Z,13.68
2019-05-02T06:45:59.476Z,13.68
2019-05-02T06:48:27.904Z,13.83
2019-05-02T06:50:56.793Z,13.83
2019-05-02T06:53:24.673Z,13.92
2019-05-02T06:55:52.553Z,13.92
2019-05-02T06:58:20.461Z,14.02
2019-05-02T07:00:57.453Z,14.02
2019-05-02T07:03:18.146Z,14.03
2019-05-02T07:05:48.865Z,14.16
2019-05-02T07:08:15.642Z,14.20
2019-05-02T07:10:44.976Z,14.20
2019-05-02T07:13:15.068Z,14.21
2019-05-02T07:16:36.822Z,14.21
2019-05-02T07:18:50.910Z,14.37
2019-05-02T07:21:23.250Z,14.37
2019-05-02T07:23:52.984Z,14.39
2019-05-02T07:26:21.107Z,14.47
2019-05-02T07:28:48.267Z,14.56
2019-05-02T07:31:16.238Z,14.58
2019-05-02T07:33:45.451Z,14.67
2019-05-02T07:36:13.333Z,14.67
2019-05-02T07:38:42.599Z,14.66
2019-05-02T07:41:10.512Z,14.76
2019-05-02T07:43:41.273Z,14.76
2019-05-02T07:46:09.110Z,14.85
2019-05-02T07:48:36.856Z,14.90
2019-05-02T07:51:04.756Z,14.98
2019-05-02T07:53:32.674Z,15.06
2019-05-02T07:56:00.852Z,15.19
2019-05-02T07:58:29.200Z,15.33
2019-05-02T08:00:56.925Z,15.33
2019-05-02T08:03:29.447Z,15.34
2019-05-02T08:05:58.149Z,15.40
2019-05-02T08:08:25.024Z,15.46
2019-05-02T08:11:01.336Z,15.57
2019-05-02T08:13:23.447Z,15.64
2019-05-02T08:15:52.388Z,15.69
2019-05-02T08:18:20.385Z,15.81
2019-05-02T08:20:51.112Z,15.86
2019-05-02T08:23:20.623Z,15.84
2019-05-02T08:25:47.506Z,15.84
2019-05-02T08:28:20.508Z,15.98
2019-05-02T08:30:52.042Z,15.98
2019-05-02T08:33:20.013Z,16.03
2019-05-02T08:35:47.855Z,16.10
2019-05-02T08:38:17.847Z,16.18
2019-05-02T08:40:47.871Z,16.18
2019-05-02T08:43:15.085Z,16.21
2019-05-02T08:45:46.197Z,16.30
2019-05-02T08:48:14.150Z,16.40
2019-05-02T08:50:41.863Z,16.48
2019-05-02T08:53:13.902Z,16.54
2019-05-02T08:55:41.240Z,16.61
2019-05-02T08:58:14.384Z,16.65
2019-05-02T09:00:39.571Z,16.70
2019-05-02T09:03:07.648Z,16.70
2019-05-02T09:05:36.403Z,16.65
2019-05-02T09:08:09.296Z,16.71
2019-05-02T09:10:37.166Z,16.71
2019-05-02T09:13:04.838Z,16.74
2019-05-02T09:15:35.213Z,16.74
2019-05-02T09:18:02.830Z,16.77
2019-05-02T09:20:31.947Z,16.79
2019-05-02T09:23:01.735Z,16.86
2019-05-02T09:25:29.740Z,16.97
2019-05-02T09:27:57.433Z,17.07
2019-05-02T09:30:25.966Z,17.18
2019-05-02T09:32:57.054Z,17.27
2019-05-02T09:35:24.314Z,17.27
2019-05-02T09:37:52.327Z,17.42
2019-05-02T09:40:22.277Z,17.50
2019-05-02T09:42:53.365Z,17.51
2019-05-02T09:45:27.915Z,17.56
2019-05-02T09:48:04.549Z,17.69
2019-05-02T09:50:31.232Z,17.69
2019-05-02T09:52:56.482Z,17.60
2019-05-02T09:55:24.404Z,17.62
2019-05-02T09:57:52.158Z,17.86
2019-05-02T10:00:44.081Z,17.86
2019-05-02T10:03:12.900Z,17.97
2019-05-02T10:05:43.047Z,18.14
2019-05-02T10:08:13.719Z,18.15
2019-05-02T10:10:45.656Z,18.15
2019-05-02T10:13:12.184Z,18.14
2019-05-02T10:15:42.095Z,18.15
2019-05-02T10:18:12.055Z,18.17
2019-05-02T10:20:41.843Z,18.18
2019-05-02T10:23:12.105Z,18.16
2019-05-02T10:25:46.009Z,18.17
2019-05-02T10:28:10.279Z,18.33
2019-05-02T10:30:38.770Z,18.43
2019-05-02T10:33:06.771Z,18.44
2019-05-02T10:35:40.669Z,18.46
2019-05-02T10:38:09.378Z,18.43
2019-05-02T10:40:37.930Z,18.38
2019-05-02T10:43:05.782Z,18.46
2019-05-02T10:45:34.017Z,18.51
2019-05-02T10:48:02.263Z,18.52
2019-05-02T10:50:36.197Z,18.53
2019-05-02T10:53:11.286Z,18.51
2019-05-02T10:55:34.185Z,18.57
2019-05-02T10:58:02.271Z,18.61
2019-05-02T11:00:34.615Z,18.67
2019-05-02T11:03:17.962Z,18.67
2019-05-02T11:05:48.599Z,18.67
2019-05-02T11:08:16.444Z,18.82
2019-05-02T11:10:45.151Z,18.85
2019-05-02T11:13:32.329Z,18.88
2019-05-02T11:16:22.637Z,18.87
2019-05-02T11:19:05.108Z,18.88
2019-05-02T11:21:53.497Z,18.89
2019-05-02T11:24:25.454Z,18.85
2019-05-02T11:26:53.450Z,18.98
2019-05-02T11:29:22.760Z,19.09
2019-05-02T11:31:52.080Z,19.12
2019-05-02T11:34:21.599Z,19.16
2019-05-02T11:36:49.734Z,19.21
2019-05-02T11:39:26.305Z,19.27
2019-05-02T11:41:47.272Z,19.27
2019-05-02T11:44:14.956Z,19.30
2019-05-02T11:46:46.788Z,19.29
2019-05-02T11:49:13.359Z,19.34
2019-05-02T11:51:42.155Z,19.33
2019-05-02T11:54:10.202Z,19.42
2019-05-02T11:56:51.322Z,19.45
2019-05-02T11:59:22.595Z,19.55
2019-05-02T12:02:03.327Z,19.66
2019-05-02T12:04:32.611Z,19.68
2019-05-02T12:07:02.760Z,19.68
2019-05-02T12:09:31.985Z,19.61
2019-05-02T12:11:59.884Z,19.71
2019-05-02T12:14:32.112Z,19.62
2019-05-02T12:16:57.240Z,19.56
2019-05-02T12:19:25.215Z,19.63
2019-05-02T12:21:55.522Z,19.62
2019-05-02T12:24:23.399Z,19.68
2019-05-02T12:26:52.863Z,19.73
2019-05-02T12:29:21.801Z,19.64
2019-05-02T12:31:54.709Z,19.73
2019-05-02T12:34:21.706Z,19.83
2019-05-02T12:36:49.779Z,19.90
2019-05-02T12:39:17.669Z,19.86
2019-05-02T12:41:45.761Z,19.89
2019-05-02T12:44:13.989Z,19.96
2019-05-02T12:46:42.391Z,19.95
2019-05-02T12:49:22.575Z,19.97
2019-05-02T12:51:40.176Z,19.96
2019-05-02T12:54:07.941Z,20.06
2019-05-02T12:56:36.240Z,20.06
2019-05-02T12:59:05.161Z,20.11
2019-05-02T13:01:33.316Z,20.19
2019-05-02T13:04:09.136Z,20.19
2019-05-02T13:06:37.307Z,20.30
2019-05-02T13:09:08.658Z,20.34
2019-05-02T13:11:45.982Z,20.27
2019-05-02T13:14:19.126Z,20.32
2019-05-02T13:16:43.966Z,20.37
2019-05-02T13:19:12.045Z,20.25
2019-05-02T13:21:50.197Z,20.35
2019-05-02T13:24:36.715Z,20.22
2019-05-02T13:27:08.916Z,20.27
2019-05-02T13:29:38.734Z,20.41
2019-05-02T13:32:35.477Z,20.57
2019-05-02T13:35:23.054Z,20.53
2019-05-02T13:37:54.035Z,20.58
2019-05-02T13:40:29.626Z,20.65
2019-05-02T13:42:57.619Z,20.58
2019-05-02T13:45:35.184Z,20.65
2019-05-02T13:48:02.968Z,20.55
2019-05-02T13:50:31.725Z,20.52
2019-05-02T13:52:59.512Z,20.57
2019-05-02T13:55:32.820Z,20.67
2019-05-02T13:58:02.319Z,20.54
2019-05-02T14:00:44.596Z,20.55
2019-05-02T14:03:12.603Z,20.53
2019-05-02T14:05:49.186Z,20.51
2019-05-02T14:08:36.793Z,20.53
2019-05-02T14:11:21.646Z,20.67
2019-05-02T14:13:49.347Z,20.64
2019-05-02T14:16:17.252Z,20.70
2019-05-02T14:18:44.936Z,20.73
2019-05-02T14:21:12.694Z,20.70
2019-05-02T14:23:42.038Z,20.76
2019-05-02T14:26:11.694Z,20.59
2019-05-02T14:28:39.535Z,20.52
2019-05-02T14:31:11.891Z,20.36
2019-05-02T14:33:42.360Z,20.49
2019-05-02T14:36:11.681Z,20.37
2019-05-02T14:38:41.726Z,20.23
2019-05-02T14:41:14.472Z,20.24
2019-05-02T14:43:57.036Z,20.10
2019-05-02T14:46:34.450Z,20.21
2019-05-02T14:48:55.578Z,20.30
2019-05-02T14:51:27.556Z,20.33
2019-05-02T14:53:57.493Z,20.21
2019-05-02T14:56:33.024Z,20.10
2019-05-02T14:59:02.634Z,20.13
2019-05-02T15:01:32.140Z,20.24
2019-05-02T15:04:04.059Z,20.18
2019-05-02T15:06:33.000Z,20.12
2019-05-02T15:09:02.261Z,20.04
2019-05-02T15:11:32.219Z,19.97
2019-05-02T15:13:59.301Z,20.01
2019-05-02T15:16:39.567Z,19.88
2019-05-02T15:18:57.180Z,19.82
2019-05-02T15:21:32.398Z,19.81
2019-05-02T15:24:01.714Z,19.85
2019-05-02T15:26:31.268Z,19.85
2019-05-02T15:28:59.204Z,19.89
2019-05-02T15:31:33.764Z,19.68
2019-05-02T15:34:13.581Z,19.71
2019-05-02T15:36:45.682Z,19.66
2019-05-02T15:41:44.712Z,19.69
2019-05-02T15:44:12.592Z,19.81
2019-05-02T15:46:42.443Z,19.71
2019-05-02T15:49:12.191Z,19.75
2019-05-02T15:51:45.051Z,19.68
2019-05-02T15:54:09.696Z,19.59
2019-05-02T15:57:00.464Z,19.68
2019-05-02T15:59:37.562Z,19.56
2019-05-02T16:02:07.606Z,19.59
2019-05-02T16:04:36.598Z,19.61
2019-05-02T16:07:08.222Z,19.65
2019-05-02T16:09:34.478Z,19.57
2019-05-02T16:12:03.071Z,19.57
2019-05-02T16:14:35.725Z,19.58
2019-05-02T16:17:03.807Z,19.50
2019-05-02T16:19:34.093Z,19.56
2019-05-02T16:22:14.955Z,19.55
2019-05-02T16:24:43.869Z,19.47
2019-05-02T16:27:16.406Z,19.43
2019-05-02T16:29:42.186Z,19.29
2019-05-02T16:32:31.041Z,19.19
2019-05-02T16:35:12.153Z,19.05
2019-05-02T16:37:33.665Z,18.92
2019-05-02T16:40:02.517Z,18.96
2019-05-02T16:42:30.440Z,18.87
2019-05-02T16:44:58.275Z,18.92
2019-05-02T16:47:26.162Z,18.94
2019-05-02T16:49:56.401Z,19.02
2019-05-02T16:52:24.029Z,19.00
2019-05-02T16:54:52.668Z,18.95
2019-05-02T16:57:22.146Z,18.88
2019-05-02T16:59:56.172Z,18.93
2019-05-02T17:02:21.768Z,18.90
2019-05-02T17:04:52.117Z,18.87
2019-05-02T17:07:26.625Z,18.79
2019-05-02T17:10:20.076Z,18.65
2019-05-02T17:12:55.025Z,18.70
2019-05-02T17:15:34.953Z,18.64
2019-05-02T17:18:04.969Z,18.64
2019-05-02T17:20:31.962Z,18.68
2019-05-02T17:23:06.638Z,18.57
2019-05-02T17:25:29.851Z,18.37
2019-05-02T17:28:04.023Z,18.33
2019-05-02T17:30:31.473Z,18.34
2019-05-02T17:32:57.092Z,18.21
2019-05-02T17:35:25.187Z,18.19
2019-05-02T17:37:59.628Z,18.14
2019-05-02T17:40:27.556Z,18.14
2019-05-02T17:42:57.075Z,18.12
2019-05-02T17:45:26.992Z,18.06
2019-05-02T17:47:54.770Z,18.05
2019-05-02T17:50:42.370Z,18.00
2019-05-02T17:53:11.633Z,17.99
2019-05-02T17:55:40.797Z,17.82
2019-05-02T17:58:12.531Z,17.72
2019-05-02T18:00:43.040Z,17.66
2019-05-02T18:03:12.435Z,17.66
2019-05-02T18:05:41.879Z,17.59
2019-05-02T18:08:14.261Z,17.53
2019-05-02T18:10:41.814Z,17.57
2019-05-02T18:13:09.728Z,17.63
2019-05-02T18:15:37.569Z,17.53
2019-05-02T18:18:06.772Z,17.52
2019-05-02T18:20:37.244Z,17.54
2019-05-02T18:23:06.072Z,17.48
2019-05-02T18:25:34.067Z,17.44
2019-05-02T18:28:02.450Z,17.38
2019-05-02T18:30:30.391Z,17.26
2019-05-02T18:33:03.412Z,17.14
2019-05-02T18:35:27.883Z,17.20
2019-05-02T18:37:55.619Z,17.17
2019-05-02T18:40:27.786Z,17.10
2019-05-02T18:42:56.512Z,17.13
2019-05-02T18:45:28.417Z,17.01
2019-05-02T18:48:01.060Z,17.03
2019-05-02T18:50:36.927Z,16.95
2019-05-02T18:53:06.269Z,16.99
2019-05-02T18:55:34.726Z,16.94
2019-05-02T18:58:05.399Z,16.93
2019-05-02T19:00:38.364Z,16.86
2019-05-02T19:03:07.644Z,16.83
2019-05-02T19:05:33.739Z,16.82
2019-05-02T19:08:02.444Z,16.79
2019-05-02T19:10:32.362Z,16.77
2019-05-02T19:13:04.033Z,16.74
2019-05-02T19:15:34.356Z,16.68
2019-05-02T19:17:59.823Z,16.62
2019-05-02T19:21:06.815Z,16.55
2019-05-02T19:23:35.353Z,16.53
2019-05-02T19:26:10.115Z,16.46
2019-05-02T19:28:53.212Z,16.36
2019-05-02T19:31:23.152Z,16.27
2019-05-02T19:33:52.702Z,16.14
2019-05-02T19:36:24.391Z,16.14
2019-05-02T19:38:52.479Z,16.12
2019-05-02T19:41:22.197Z,16.06
2019-05-02T19:43:51.445Z,16.00
2019-05-02T19:46:24.563Z,15.97
2019-05-02T19:48:49.646Z,15.95
2019-05-02T19:51:20.171Z,15.90
2019-05-02T19:53:53.496Z,15.88
2019-05-02T19:56:17.032Z,15.84
2019-05-02T19:58:46.721Z,15.83
2019-05-02T20:01:17.380Z,15.74
2019-05-02T20:03:44.654Z,15.65
2019-05-02T20:06:12.913Z,15.60
2019-05-02T20:08:42.005Z,15.53
2019-05-02T20:11:10.026Z,15.49
2019-05-02T20:13:37.993Z,15.48
2019-05-02T20:16:16.301Z,15.49
2019-05-02T20:18:47.150Z,15.49
2019-05-02T20:21:37.890Z,15.48
2019-05-02T20:24:09.219Z,15.40
2019-05-02T20:26:51.712Z,15.23
2019-05-02T20:29:24.440Z,15.23
2019-05-02T20:31:52.185Z,15.08
2019-05-02T20:34:22.098Z,15.05
2019-05-02T20:36:51.858Z,14.95
2019-05-02T20:39:19.788Z,14.87
2019-05-02T20:41:47.604Z,14.83
2019-05-02T20:44:15.498Z,14.75
2019-05-02T20:46:43.219Z,14.72
2019-05-02T20:49:12.837Z,14.68
2019-05-02T20:51:42.389Z,14.58
2019-05-02T20:54:12.378Z,14.52
2019-05-02T20:56:40.249Z,14.38
2019-05-02T20:59:08.171Z,14.39
2019-05-02T21:01:36.004Z,14.40
2019-05-02T21:04:03.977Z,14.39
2019-05-02T21:06:44.206Z,14.35
2019-05-02T21:09:33.573Z,14.34
2019-05-02T21:12:04.083Z,14.36
2019-05-02T21:14:34.806Z,14.33
2019-05-02T21:17:03.029Z,14.32
2019-05-02T21:19:32.378Z,14.30
2019-05-02T21:22:04.674Z,14.30
2019-05-02T21:24:32.810Z,14.26
2019-05-02T21:27:01.919Z,14.25
2019-05-02T21:29:32.027Z,14.20
2019-05-02T21:31:59.644Z,14.14
2019-05-02T21:34:27.556Z,13.97
2019-05-02T21:36:55.366Z,13.90
2019-05-02T21:39:23.136Z,13.89
2019-05-02T21:41:51.685Z,13.85
2019-05-02T21:44:19.715Z,13.85
2019-05-02T21:46:47.621Z,13.74
2019-05-02T21:49:35.049Z,13.74
2019-05-02T21:52:18.818Z,13.67
2019-05-02T21:54:56.165Z,13.67
2019-05-02T21:57:23.917Z,13.69
2019-05-02T21:59:52.726Z,13.67
2019-05-02T22:02:22.544Z,13.63
2019-05-02T22:04:50.589Z,13.48
2019-05-02T22:07:17.959Z,13.48
2019-05-02T22:09:45.721Z,13.50
2019-05-02T22:12:13.552Z,13.40
2019-05-02T22:14:42.224Z,13.28
2019-05-02T22:17:10.413Z,13.16
2019-05-02T22:19:38.316Z,13.18
2019-05-02T22:22:06.127Z,13.18
2019-05-02T22:24:33.998Z,13.10
2019-05-02T22:27:02.022Z,13.07
2019-05-02T22:29:29.826Z,13.07
2019-05-02T22:31:57.588Z,13.02
2019-05-02T22:34:25.355Z,12.99
2019-05-02T22:36:54.374Z,12.92
2019-05-02T22:39:53.665Z,12.89
2019-05-02T22:42:21.925Z,12.85
2019-05-02T22:44:49.708Z,12.85
2019-05-02T22:47:17.648Z,12.82
2019-05-02T22:49:45.472Z,12.77
2019-05-02T22:52:14.402Z,12.71
2019-05-02T22:54:42.433Z,12.69
2019-05-02T22:57:11.622Z,12.69
2019-05-02T22:59:42.132Z,12.61
2019-05-02T23:02:09.785Z,12.61
2019-05-02T23:04:37.500Z,12.55
2019-05-02T23:07:05.361Z,12.55
2019-05-02T23:09:33.280Z,12.44
2019-05-02T23:12:02.814Z,12.44
2019-05-02T23:14:32.509Z,12.47
2019-05-02T23:17:02.064Z,12.40
2019-05-02T23:19:47.243Z,12.39
2019-05-02T23:22:24.985Z,12.38
2019-05-02T23:25:11.649Z,12.31
2019-05-02T23:27:51.777Z,12.31
2019-05-02T23:30:22.547Z,12.24
2019-05-02T23:32:51.672Z,12.21
2019-05-02T23:35:19.726Z,12.21
2019-05-02T23:37:47.462Z,12.18
2019-05-02T23:40:15.466Z,12.18
2019-05-02T23:42:43.331Z,12.16
2019-05-02T23:45:12.159Z,12.13
2019-05-02T23:47:42.056Z,12.11
2019-05-02T23:50:12.146Z,12.04
2019-05-02T23:52:40.184Z,12.04
2019-05-02T23:55:08.109Z,12.03
2019-05-02T23:57:35.855Z,12.02
